sensor_id;sensor_type;location;lat;lon;timestamp;P1;durP1;ratioP1;P2;durP2;ratioP2
39102;SDS011;24847;48.218;16.414;2024-01-06T00:04:04;14.95;;;10.15;;
39102;SDS011;24847;48.218;16.414;2024-01-06T00:09:06;13.82;;;10.90;;
39102;SDS011;24847;48.218;16.414;2024-01-06T00:14:09;15.82;;;11.23;;
39102;SDS011;24847;48.218;16.414;2024-01-06T00:19:11;12.88;;;10.23;;
39102;SDS011;24847;48.218;16.414;2024-01-06T00:24:14;14.23;;;11.18;;
39102;SDS011;24847;48.218;16.414;2024-01-06T00:29:17;12.00;;;10.38;;
39102;SDS011;24847;48.218;16.414;2024-01-06T00:34:19;11.95;;;9.57;;
39102;SDS011;24847;48.218;16.414;2024-01-06T00:39:21;12.68;;;9.65;;
39102;SDS011;24847;48.218;16.414;2024-01-06T00:44:25;13.30;;;10.57;;
39102;SDS011;24847;48.218;16.414;2024-01-06T00:49:27;14.13;;;10.98;;
39102;SDS011;24847;48.218;16.414;2024-01-06T00:54:29;13.45;;;10.75;;
39102;SDS011;24847;48.218;16.414;2024-01-06T00:59:35;14.40;;;10.73;;
39102;SDS011;24847;48.218;16.414;2024-01-06T01:04:37;15.25;;;11.68;;
39102;SDS011;24847;48.218;16.414;2024-01-06T01:09:39;14.35;;;10.88;;
39102;SDS011;24847;48.218;16.414;2024-01-06T01:14:43;14.25;;;11.63;;
39102;SDS011;24847;48.218;16.414;2024-01-06T01:19:45;13.70;;;10.90;;
39102;SDS011;24847;48.218;16.414;2024-01-06T01:24:48;15.10;;;10.35;;
39102;SDS011;24847;48.218;16.414;2024-01-06T01:29:52;14.88;;;11.88;;
39102;SDS011;24847;48.218;16.414;2024-01-06T01:34:55;16.00;;;12.13;;
39102;SDS011;24847;48.218;16.414;2024-01-06T01:39:57;14.40;;;11.70;;
39102;SDS011;24847;48.218;16.414;2024-01-06T01:45:00;16.35;;;11.45;;
39102;SDS011;24847;48.218;16.414;2024-01-06T01:50:03;16.05;;;11.75;;
39102;SDS011;24847;48.218;16.414;2024-01-06T01:55:06;13.95;;;10.82;;
39102;SDS011;24847;48.218;16.414;2024-01-06T02:00:11;14.00;;;11.05;;
39102;SDS011;24847;48.218;16.414;2024-01-06T02:05:15;14.40;;;10.50;;
39102;SDS011;24847;48.218;16.414;2024-01-06T02:10:17;14.80;;;11.45;;
39102;SDS011;24847;48.218;16.414;2024-01-06T02:15:21;15.65;;;12.13;;
39102;SDS011;24847;48.218;16.414;2024-01-06T02:20:23;14.15;;;11.18;;
39102;SDS011;24847;48.218;16.414;2024-01-06T02:25:28;13.55;;;11.05;;
39102;SDS011;24847;48.218;16.414;2024-01-06T02:30:30;14.55;;;11.40;;
39102;SDS011;24847;48.218;16.414;2024-01-06T02:35:32;13.35;;;10.98;;
39102;SDS011;24847;48.218;16.414;2024-01-06T02:40:36;12.20;;;9.65;;
39102;SDS011;24847;48.218;16.414;2024-01-06T02:45:38;14.65;;;11.07;;
39102;SDS011;24847;48.218;16.414;2024-01-06T02:50:40;15.23;;;11.88;;
39102;SDS011;24847;48.218;16.414;2024-01-06T02:55:43;13.18;;;11.40;;
39102;SDS011;24847;48.218;16.414;2024-01-06T03:00:47;14.30;;;11.25;;
39102;SDS011;24847;48.218;16.414;2024-01-06T03:05:49;13.98;;;11.55;;
39102;SDS011;24847;48.218;16.414;2024-01-06T03:10:52;14.45;;;12.40;;
39102;SDS011;24847;48.218;16.414;2024-01-06T03:15:54;13.23;;;11.50;;
39102;SDS011;24847;48.218;16.414;2024-01-06T03:20:56;13.82;;;11.55;;
39102;SDS011;24847;48.218;16.414;2024-01-06T03:26:02;14.95;;;11.10;;
39102;SDS011;24847;48.218;16.414;2024-01-06T03:31:07;14.70;;;12.00;;
39102;SDS011;24847;48.218;16.414;2024-01-06T03:36:09;15.55;;;11.40;;
39102;SDS011;24847;48.218;16.414;2024-01-06T03:41:15;15.43;;;12.15;;
39102;SDS011;24847;48.218;16.414;2024-01-06T03:46:17;14.25;;;11.32;;
39102;SDS011;24847;48.218;16.414;2024-01-06T03:51:19;14.13;;;11.52;;
39102;SDS011;24847;48.218;16.414;2024-01-06T03:56:23;13.75;;;11.60;;
39102;SDS011;24847;48.218;16.414;2024-01-06T04:01:31;12.68;;;10.05;;
39102;SDS011;24847;48.218;16.414;2024-01-06T04:06:35;13.80;;;10.65;;
39102;SDS011;24847;48.218;16.414;2024-01-06T04:11:39;14.77;;;11.20;;
39102;SDS011;24847;48.218;16.414;2024-01-06T04:16:41;13.32;;;10.65;;
39102;SDS011;24847;48.218;16.414;2024-01-06T04:21:43;14.70;;;11.10;;
39102;SDS011;24847;48.218;16.414;2024-01-06T04:26:47;13.98;;;12.48;;
39102;SDS011;24847;48.218;16.414;2024-01-06T04:31:49;14.60;;;11.35;;
39102;SDS011;24847;48.218;16.414;2024-01-06T04:36:52;14.00;;;11.68;;
39102;SDS011;24847;48.218;16.414;2024-01-06T04:41:55;14.98;;;11.55;;
39102;SDS011;24847;48.218;16.414;2024-01-06T04:46:57;14.07;;;11.75;;
39102;SDS011;24847;48.218;16.414;2024-01-06T04:52:00;12.98;;;11.32;;
39102;SDS011;24847;48.218;16.414;2024-01-06T04:57:04;12.80;;;10.80;;
39102;SDS011;24847;48.218;16.414;2024-01-06T05:02:06;13.65;;;10.50;;
39102;SDS011;24847;48.218;16.414;2024-01-06T05:07:09;13.40;;;11.60;;
39102;SDS011;24847;48.218;16.414;2024-01-06T05:12:12;13.02;;;11.10;;
39102;SDS011;24847;48.218;16.414;2024-01-06T05:17:14;13.93;;;10.80;;
39102;SDS011;24847;48.218;16.414;2024-01-06T05:22:17;13.75;;;11.18;;
39102;SDS011;24847;48.218;16.414;2024-01-06T05:27:21;13.70;;;10.98;;
39102;SDS011;24847;48.218;16.414;2024-01-06T05:32:23;14.70;;;11.02;;
39102;SDS011;24847;48.218;16.414;2024-01-06T05:37:25;13.15;;;10.57;;
39102;SDS011;24847;48.218;16.414;2024-01-06T05:42:28;12.27;;;9.57;;
39102;SDS011;24847;48.218;16.414;2024-01-06T05:47:31;12.02;;;9.57;;
39102;SDS011;24847;48.218;16.414;2024-01-06T05:52:33;11.88;;;9.52;;
39102;SDS011;24847;48.218;16.414;2024-01-06T05:57:36;11.90;;;9.50;;
39102;SDS011;24847;48.218;16.414;2024-01-06T06:02:39;11.02;;;9.82;;
39102;SDS011;24847;48.218;16.414;2024-01-06T06:07:41;13.45;;;9.60;;
39102;SDS011;24847;48.218;16.414;2024-01-06T06:12:45;12.23;;;9.30;;
39102;SDS011;24847;48.218;16.414;2024-01-06T06:17:47;12.45;;;10.20;;
39102;SDS011;24847;48.218;16.414;2024-01-06T06:22:49;25.52;;;17.80;;
39102;SDS011;24847;48.218;16.414;2024-01-06T06:27:52;14.15;;;11.52;;
39102;SDS011;24847;48.218;16.414;2024-01-06T06:32:54;14.25;;;10.73;;
39102;SDS011;24847;48.218;16.414;2024-01-06T06:37:56;13.25;;;9.50;;
39102;SDS011;24847;48.218;16.414;2024-01-06T06:43:00;11.77;;;10.05;;
39102;SDS011;24847;48.218;16.414;2024-01-06T06:48:02;12.65;;;10.05;;
39102;SDS011;24847;48.218;16.414;2024-01-06T06:53:05;11.02;;;9.52;;
39102;SDS011;24847;48.218;16.414;2024-01-06T06:58:11;12.50;;;10.27;;
39102;SDS011;24847;48.218;16.414;2024-01-06T07:03:13;12.88;;;10.23;;
39102;SDS011;24847;48.218;16.414;2024-01-06T07:08:16;13.43;;;10.25;;
39102;SDS011;24847;48.218;16.414;2024-01-06T07:13:19;12.82;;;10.68;;
39102;SDS011;24847;48.218;16.414;2024-01-06T07:18:24;12.35;;;10.52;;
39102;SDS011;24847;48.218;16.414;2024-01-06T07:23:26;12.93;;;10.38;;
39102;SDS011;24847;48.218;16.414;2024-01-06T07:28:30;12.25;;;10.13;;
39102;SDS011;24847;48.218;16.414;2024-01-06T07:33:32;13.45;;;10.80;;
39102;SDS011;24847;48.218;16.414;2024-01-06T07:38:34;13.00;;;10.65;;
39102;SDS011;24847;48.218;16.414;2024-01-06T07:43:38;11.40;;;9.85;;
39102;SDS011;24847;48.218;16.414;2024-01-06T07:48:40;14.80;;;10.38;;
39102;SDS011;24847;48.218;16.414;2024-01-06T07:53:42;12.20;;;10.55;;
39102;SDS011;24847;48.218;16.414;2024-01-06T07:58:46;11.70;;;10.23;;
39102;SDS011;24847;48.218;16.414;2024-01-06T08:03:48;13.15;;;10.63;;
39102;SDS011;24847;48.218;16.414;2024-01-06T08:08:50;11.98;;;10.65;;
39102;SDS011;24847;48.218;16.414;2024-01-06T08:13:54;12.38;;;10.23;;
39102;SDS011;24847;48.218;16.414;2024-01-06T08:18:56;12.80;;;10.07;;
39102;SDS011;24847;48.218;16.414;2024-01-06T08:23:58;11.60;;;9.82;;
39102;SDS011;24847;48.218;16.414;2024-01-06T08:29:01;12.38;;;10.95;;
39102;SDS011;24847;48.218;16.414;2024-01-06T08:34:04;11.77;;;10.25;;
39102;SDS011;24847;48.218;16.414;2024-01-06T08:39:08;10.68;;;9.48;;
39102;SDS011;24847;48.218;16.414;2024-01-06T08:44:11;11.65;;;9.98;;
39102;SDS011;24847;48.218;16.414;2024-01-06T08:49:14;10.85;;;9.55;;
39102;SDS011;24847;48.218;16.414;2024-01-06T08:54:16;10.45;;;9.30;;
39102;SDS011;24847;48.218;16.414;2024-01-06T08:59:19;10.50;;;8.50;;
39102;SDS011;24847;48.218;16.414;2024-01-06T09:04:21;10.93;;;8.50;;
39102;SDS011;24847;48.218;16.414;2024-01-06T09:09:24;9.32;;;8.10;;
39102;SDS011;24847;48.218;16.414;2024-01-06T09:14:27;9.00;;;7.85;;
39102;SDS011;24847;48.218;16.414;2024-01-06T09:19:30;10.23;;;7.70;;
39102;SDS011;24847;48.218;16.414;2024-01-06T09:24:32;10.00;;;7.53;;
39102;SDS011;24847;48.218;16.414;2024-01-06T09:29:36;7.57;;;6.78;;
39102;SDS011;24847;48.218;16.414;2024-01-06T09:34:38;8.00;;;6.80;;
39102;SDS011;24847;48.218;16.414;2024-01-06T09:39:40;7.93;;;6.82;;
39102;SDS011;24847;48.218;16.414;2024-01-06T09:44:44;7.60;;;6.35;;
39102;SDS011;24847;48.218;16.414;2024-01-06T09:49:48;7.13;;;6.35;;
39102;SDS011;24847;48.218;16.414;2024-01-06T09:54:51;7.00;;;6.10;;
39102;SDS011;24847;48.218;16.414;2024-01-06T09:59:56;6.55;;;5.85;;
39102;SDS011;24847;48.218;16.414;2024-01-06T10:04:59;6.60;;;5.43;;
39102;SDS011;24847;48.218;16.414;2024-01-06T10:10:01;5.50;;;5.00;;
39102;SDS011;24847;48.218;16.414;2024-01-06T10:15:06;5.40;;;4.65;;
39102;SDS011;24847;48.218;16.414;2024-01-06T10:20:10;4.55;;;3.95;;
39102;SDS011;24847;48.218;16.414;2024-01-06T10:25:14;3.92;;;3.53;;
39102;SDS011;24847;48.218;16.414;2024-01-06T10:30:17;3.55;;;3.25;;
39102;SDS011;24847;48.218;16.414;2024-01-06T10:35:20;4.70;;;3.55;;
39102;SDS011;24847;48.218;16.414;2024-01-06T10:40:22;4.00;;;3.55;;
39102;SDS011;24847;48.218;16.414;2024-01-06T10:45:25;4.28;;;3.33;;
39102;SDS011;24847;48.218;16.414;2024-01-06T10:50:30;3.58;;;3.15;;
39102;SDS011;24847;48.218;16.414;2024-01-06T10:55:32;3.13;;;2.83;;
39102;SDS011;24847;48.218;16.414;2024-01-06T11:00:37;3.22;;;2.92;;
39102;SDS011;24847;48.218;16.414;2024-01-06T11:05:39;3.97;;;3.30;;
39102;SDS011;24847;48.218;16.414;2024-01-06T11:10:42;3.38;;;3.05;;
39102;SDS011;24847;48.218;16.414;2024-01-06T11:15:47;3.92;;;2.92;;
39102;SDS011;24847;48.218;16.414;2024-01-06T11:26:21;3.40;;;3.10;;
39102;SDS011;24847;48.218;16.414;2024-01-06T11:31:25;5.57;;;4.18;;
39102;SDS011;24847;48.218;16.414;2024-01-06T11:36:32;4.65;;;3.83;;
39102;SDS011;24847;48.218;16.414;2024-01-06T11:41:47;5.03;;;4.18;;
39102;SDS011;24847;48.218;16.414;2024-01-06T11:46:51;5.43;;;4.03;;
39102;SDS011;24847;48.218;16.414;2024-01-06T11:51:58;4.78;;;4.28;;
39102;SDS011;24847;48.218;16.414;2024-01-06T11:57:01;4.47;;;3.90;;
39102;SDS011;24847;48.218;16.414;2024-01-06T12:02:05;4.97;;;4.00;;
39102;SDS011;24847;48.218;16.414;2024-01-06T12:07:12;4.25;;;3.83;;
39102;SDS011;24847;48.218;16.414;2024-01-06T12:12:15;4.35;;;3.70;;
39102;SDS011;24847;48.218;16.414;2024-01-06T12:17:20;4.75;;;4.00;;
39102;SDS011;24847;48.218;16.414;2024-01-06T12:22:23;4.82;;;4.32;;
39102;SDS011;24847;48.218;16.414;2024-01-06T12:27:27;5.00;;;3.95;;
39102;SDS011;24847;48.218;16.414;2024-01-06T12:32:30;5.40;;;4.32;;
39102;SDS011;24847;48.218;16.414;2024-01-06T12:37:32;5.53;;;4.60;;
39102;SDS011;24847;48.218;16.414;2024-01-06T12:42:36;5.22;;;4.47;;
39102;SDS011;24847;48.218;16.414;2024-01-06T12:47:40;5.25;;;4.68;;
39102;SDS011;24847;48.218;16.414;2024-01-06T12:52:43;5.43;;;4.80;;
39102;SDS011;24847;48.218;16.414;2024-01-06T12:57:46;4.75;;;4.25;;
39102;SDS011;24847;48.218;16.414;2024-01-06T13:02:49;4.65;;;4.15;;
39102;SDS011;24847;48.218;16.414;2024-01-06T13:07:52;4.57;;;4.15;;
39102;SDS011;24847;48.218;16.414;2024-01-06T13:12:54;4.35;;;3.95;;
39102;SDS011;24847;48.218;16.414;2024-01-06T13:17:57;4.80;;;4.30;;
39102;SDS011;24847;48.218;16.414;2024-01-06T13:23:00;5.82;;;4.55;;
39102;SDS011;24847;48.218;16.414;2024-01-06T13:28:05;6.78;;;6.10;;
39102;SDS011;24847;48.218;16.414;2024-01-06T13:33:10;5.30;;;4.55;;
39102;SDS011;24847;48.218;16.414;2024-01-06T13:38:12;4.65;;;4.25;;
39102;SDS011;24847;48.218;16.414;2024-01-06T13:43:14;4.43;;;4.03;;
39102;SDS011;24847;48.218;16.414;2024-01-06T13:48:18;4.20;;;3.80;;
39102;SDS011;24847;48.218;16.414;2024-01-06T13:53:20;4.43;;;3.70;;
39102;SDS011;24847;48.218;16.414;2024-01-06T13:58:22;3.95;;;3.47;;
39102;SDS011;24847;48.218;16.414;2024-01-06T14:03:25;4.88;;;3.67;;
39102;SDS011;24847;48.218;16.414;2024-01-06T14:08:27;5.65;;;4.65;;
39102;SDS011;24847;48.218;16.414;2024-01-06T14:13:30;4.68;;;4.18;;
39102;SDS011;24847;48.218;16.414;2024-01-06T14:18:36;4.35;;;3.88;;
39102;SDS011;24847;48.218;16.414;2024-01-06T14:23:38;4.63;;;4.22;;
39102;SDS011;24847;48.218;16.414;2024-01-06T14:28:40;4.35;;;3.95;;
39102;SDS011;24847;48.218;16.414;2024-01-06T14:33:43;4.07;;;3.78;;
39102;SDS011;24847;48.218;16.414;2024-01-06T14:38:46;5.10;;;4.35;;
39102;SDS011;24847;48.218;16.414;2024-01-06T14:43:48;4.60;;;4.20;;
39102;SDS011;24847;48.218;16.414;2024-01-06T14:48:51;7.10;;;5.22;;
39102;SDS011;24847;48.218;16.414;2024-01-06T14:53:55;4.85;;;4.35;;
39102;SDS011;24847;48.218;16.414;2024-01-06T14:58:57;5.32;;;4.68;;
39102;SDS011;24847;48.218;16.414;2024-01-06T15:04:00;5.18;;;4.68;;
39102;SDS011;24847;48.218;16.414;2024-01-06T15:09:03;5.03;;;4.53;;
39102;SDS011;24847;48.218;16.414;2024-01-06T15:14:05;5.78;;;5.18;;
39102;SDS011;24847;48.218;16.414;2024-01-06T15:19:10;4.90;;;4.40;;
39102;SDS011;24847;48.218;16.414;2024-01-06T15:24:13;5.75;;;5.15;;
39102;SDS011;24847;48.218;16.414;2024-01-06T15:29:17;5.60;;;4.78;;
39102;SDS011;24847;48.218;16.414;2024-01-06T15:34:20;5.78;;;4.65;;
39102;SDS011;24847;48.218;16.414;2024-01-06T15:39:23;5.05;;;4.53;;
39102;SDS011;24847;48.218;16.414;2024-01-06T15:44:25;4.78;;;4.28;;
39102;SDS011;24847;48.218;16.414;2024-01-06T15:49:29;6.03;;;4.97;;
39102;SDS011;24847;48.218;16.414;2024-01-06T15:54:31;5.05;;;4.55;;
39102;SDS011;24847;48.218;16.414;2024-01-06T15:59:33;5.60;;;4.68;;
39102;SDS011;24847;48.218;16.414;2024-01-06T16:04:37;6.32;;;4.90;;
39102;SDS011;24847;48.218;16.414;2024-01-06T16:09:39;4.90;;;4.40;;
39102;SDS011;24847;48.218;16.414;2024-01-06T16:14:41;6.57;;;5.00;;
39102;SDS011;24847;48.218;16.414;2024-01-06T16:19:45;5.28;;;4.45;;
39102;SDS011;24847;48.218;16.414;2024-01-06T16:24:47;5.43;;;4.47;;
39102;SDS011;24847;48.218;16.414;2024-01-06T16:29:49;5.43;;;3.95;;
39102;SDS011;24847;48.218;16.414;2024-01-06T16:34:52;5.35;;;4.57;;
39102;SDS011;24847;48.218;16.414;2024-01-06T16:39:55;8.43;;;5.25;;
39102;SDS011;24847;48.218;16.414;2024-01-06T16:44:57;4.75;;;4.25;;
39102;SDS011;24847;48.218;16.414;2024-01-06T16:50:01;4.95;;;4.45;;
39102;SDS011;24847;48.218;16.414;2024-01-06T16:55:03;5.05;;;4.32;;
39102;SDS011;24847;48.218;16.414;2024-01-06T17:00:06;5.25;;;4.15;;
39102;SDS011;24847;48.218;16.414;2024-01-06T17:05:12;5.75;;;4.88;;
39102;SDS011;24847;48.218;16.414;2024-01-06T17:10:14;5.20;;;4.50;;
39102;SDS011;24847;48.218;16.414;2024-01-06T17:15:17;5.32;;;4.72;;
39102;SDS011;24847;48.218;16.414;2024-01-06T17:20:25;5.68;;;4.95;;
39102;SDS011;24847;48.218;16.414;2024-01-06T17:25:28;4.60;;;4.20;;
39102;SDS011;24847;48.218;16.414;2024-01-06T17:30:31;5.88;;;4.95;;
39102;SDS011;24847;48.218;16.414;2024-01-06T17:35:35;5.90;;;4.88;;
39102;SDS011;24847;48.218;16.414;2024-01-06T17:40:37;5.60;;;4.88;;
39102;SDS011;24847;48.218;16.414;2024-01-06T17:45:39;4.72;;;4.10;;
39102;SDS011;24847;48.218;16.414;2024-01-06T17:50:43;5.07;;;3.92;;
39102;SDS011;24847;48.218;16.414;2024-01-06T17:55:46;4.88;;;4.10;;
39102;SDS011;24847;48.218;16.414;2024-01-06T18:00:48;4.47;;;3.97;;
39102;SDS011;24847;48.218;16.414;2024-01-06T18:05:51;7.07;;;5.68;;
39102;SDS011;24847;48.218;16.414;2024-01-06T18:10:56;5.00;;;4.45;;
39102;SDS011;24847;48.218;16.414;2024-01-06T18:16:00;4.75;;;4.25;;
39102;SDS011;24847;48.218;16.414;2024-01-06T18:21:04;4.50;;;3.88;;
39102;SDS011;24847;48.218;16.414;2024-01-06T18:26:07;4.93;;;4.07;;
39102;SDS011;24847;48.218;16.414;2024-01-06T18:31:09;4.28;;;3.88;;
39102;SDS011;24847;48.218;16.414;2024-01-06T18:36:13;6.30;;;5.28;;
39102;SDS011;24847;48.218;16.414;2024-01-06T18:41:15;5.88;;;4.97;;
39102;SDS011;24847;48.218;16.414;2024-01-06T18:46:17;5.22;;;4.72;;
39102;SDS011;24847;48.218;16.414;2024-01-06T18:51:21;5.47;;;4.45;;
39102;SDS011;24847;48.218;16.414;2024-01-06T18:56:23;6.28;;;4.93;;
39102;SDS011;24847;48.218;16.414;2024-01-06T19:01:27;6.75;;;5.57;;
39102;SDS011;24847;48.218;16.414;2024-01-06T19:06:32;6.72;;;5.35;;
39102;SDS011;24847;48.218;16.414;2024-01-06T19:11:34;4.95;;;4.45;;
39102;SDS011;24847;48.218;16.414;2024-01-06T19:16:36;5.65;;;5.05;;
39102;SDS011;24847;48.218;16.414;2024-01-06T19:21:43;5.28;;;4.35;;
39102;SDS011;24847;48.218;16.414;2024-01-06T19:26:46;6.72;;;5.20;;
39102;SDS011;24847;48.218;16.414;2024-01-06T19:31:48;5.60;;;4.82;;
39102;SDS011;24847;48.218;16.414;2024-01-06T19:36:51;5.88;;;4.75;;
39102;SDS011;24847;48.218;16.414;2024-01-06T19:41:54;6.75;;;5.60;;
39102;SDS011;24847;48.218;16.414;2024-01-06T19:46:56;5.82;;;4.93;;
39102;SDS011;24847;48.218;16.414;2024-01-06T19:52:01;6.70;;;5.60;;
39102;SDS011;24847;48.218;16.414;2024-01-06T19:57:04;9.73;;;7.35;;
39102;SDS011;24847;48.218;16.414;2024-01-06T20:02:08;10.40;;;7.57;;
39102;SDS011;24847;48.218;16.414;2024-01-06T20:07:12;10.65;;;7.53;;
39102;SDS011;24847;48.218;16.414;2024-01-06T20:12:14;9.68;;;7.38;;
39102;SDS011;24847;48.218;16.414;2024-01-06T20:17:16;10.23;;;8.20;;
39102;SDS011;24847;48.218;16.414;2024-01-06T20:22:20;11.88;;;9.40;;
39102;SDS011;24847;48.218;16.414;2024-01-06T20:27:22;12.15;;;8.85;;
39102;SDS011;24847;48.218;16.414;2024-01-06T20:32:24;13.15;;;9.52;;
39102;SDS011;24847;48.218;16.414;2024-01-06T20:37:28;11.45;;;8.95;;
39102;SDS011;24847;48.218;16.414;2024-01-06T20:42:30;9.55;;;7.68;;
39102;SDS011;24847;48.218;16.414;2024-01-06T20:47:33;10.43;;;7.75;;
39102;SDS011;24847;48.218;16.414;2024-01-06T20:52:37;9.43;;;7.70;;
39102;SDS011;24847;48.218;16.414;2024-01-06T20:57:39;10.63;;;8.07;;
39102;SDS011;24847;48.218;16.414;2024-01-06T21:02:41;9.80;;;7.85;;
39102;SDS011;24847;48.218;16.414;2024-01-06T21:07:45;9.90;;;8.10;;
39102;SDS011;24847;48.218;16.414;2024-01-06T21:12:47;10.23;;;7.32;;
39102;SDS011;24847;48.218;16.414;2024-01-06T21:17:50;8.95;;;7.25;;
39102;SDS011;24847;48.218;16.414;2024-01-06T21:22:53;8.60;;;6.47;;
39102;SDS011;24847;48.218;16.414;2024-01-06T21:27:56;9.05;;;6.32;;
39102;SDS011;24847;48.218;16.414;2024-01-06T21:32:59;6.68;;;5.45;;
39102;SDS011;24847;48.218;16.414;2024-01-06T21:38:03;8.00;;;6.13;;
39102;SDS011;24847;48.218;16.414;2024-01-06T21:43:15;6.70;;;5.47;;
39102;SDS011;24847;48.218;16.414;2024-01-06T21:48:17;5.88;;;4.63;;
39102;SDS011;24847;48.218;16.414;2024-01-06T21:53:21;7.30;;;5.22;;
39102;SDS011;24847;48.218;16.414;2024-01-06T21:58:23;6.78;;;4.80;;
39102;SDS011;24847;48.218;16.414;2024-01-06T22:03:26;6.35;;;5.30;;
39102;SDS011;24847;48.218;16.414;2024-01-06T22:08:29;7.45;;;5.30;;
39102;SDS011;24847;48.218;16.414;2024-01-06T22:13:32;5.90;;;5.25;;
39102;SDS011;24847;48.218;16.414;2024-01-06T22:18:34;6.10;;;4.75;;
39102;SDS011;24847;48.218;16.414;2024-01-06T22:23:38;5.80;;;4.95;;
39102;SDS011;24847;48.218;16.414;2024-01-06T22:28:40;7.05;;;5.10;;
39102;SDS011;24847;48.218;16.414;2024-01-06T22:33:43;7.10;;;4.60;;
39102;SDS011;24847;48.218;16.414;2024-01-06T22:38:46;6.05;;;4.85;;
39102;SDS011;24847;48.218;16.414;2024-01-06T22:43:49;6.78;;;5.25;;
39102;SDS011;24847;48.218;16.414;2024-01-06T22:48:51;5.78;;;4.80;;
39102;SDS011;24847;48.218;16.414;2024-01-06T22:53:55;6.90;;;4.80;;
39102;SDS011;24847;48.218;16.414;2024-01-06T22:58:57;6.22;;;4.57;;
39102;SDS011;24847;48.218;16.414;2024-01-06T23:04:00;5.95;;;4.72;;
39102;SDS011;24847;48.218;16.414;2024-01-06T23:09:03;5.65;;;4.93;;
39102;SDS011;24847;48.218;16.414;2024-01-06T23:14:07;6.68;;;5.15;;
39102;SDS011;24847;48.218;16.414;2024-01-06T23:19:09;6.75;;;5.35;;
39102;SDS011;24847;48.218;16.414;2024-01-06T23:24:13;5.85;;;5.00;;
39102;SDS011;24847;48.218;16.414;2024-01-06T23:29:21;7.32;;;5.13;;
39102;SDS011;24847;48.218;16.414;2024-01-06T23:34:23;7.25;;;5.63;;
39102;SDS011;24847;48.218;16.414;2024-01-06T23:39:31;5.05;;;4.47;;
39102;SDS011;24847;48.218;16.414;2024-01-06T23:44:33;6.18;;;4.82;;
39102;SDS011;24847;48.218;16.414;2024-01-06T23:49:36;6.30;;;4.20;;
39102;SDS011;24847;48.218;16.414;2024-01-06T23:54:39;5.43;;;4.22;;
39102;SDS011;24847;48.218;16.414;2024-01-06T23:59:42;4.32;;;3.60;;
